createdAt,value
2022-10-21T00:00:19.968Z,15.68
2022-10-21T00:01:19.471Z,15.56
2022-10-21T00:02:19.592Z,15.64
2022-10-21T00:03:19.744Z,15.60
2022-10-21T00:04:19.911Z,15.60
2022-10-21T00:05:20.048Z,15.56
2022-10-21T00:06:20.972Z,15.45
2022-10-21T00:07:20.480Z,15.57
2022-10-21T00:08:21.465Z,15.57
2022-10-21T00:09:21.469Z,15.52
2022-10-21T00:10:21.469Z,15.63
2022-10-21T00:11:21.082Z,15.49
2022-10-21T00:12:21.494Z,15.51
2022-10-21T00:13:21.401Z,15.59
2022-10-21T00:14:22.472Z,15.59
2022-10-21T00:15:21.980Z,15.52
2022-10-21T00:16:22.475Z,15.49
2022-10-21T00:17:22.974Z,15.51
2022-10-21T00:18:22.969Z,15.51
2022-10-21T00:19:22.484Z,15.49
2022-10-21T00:21:23.985Z,15.51
2022-10-21T00:22:22.834Z,15.51
2022-10-21T00:23:22.988Z,15.52
2022-10-21T00:24:23.488Z,15.59
2022-10-21T00:25:23.975Z,15.52
2022-10-21T00:26:24.471Z,15.49
2022-10-21T00:27:23.715Z,15.60
2022-10-21T00:28:23.878Z,15.60
2022-10-21T00:29:24.053Z,15.57
2022-10-21T00:30:24.998Z,15.57
2022-10-21T00:31:24.399Z,15.56
2022-10-21T00:32:24.545Z,15.54
2022-10-21T00:33:24.689Z,15.60
2022-10-21T00:34:28.503Z,15.63
2022-10-21T00:35:26.967Z,15.67
2022-10-21T00:36:25.208Z,15.66
2022-10-21T00:37:25.486Z,15.59
2022-10-21T00:38:25.505Z,15.49
2022-10-21T00:39:26.480Z,15.61
2022-10-21T00:40:25.846Z,15.56
2022-10-21T00:41:26.492Z,15.51
2022-10-21T00:42:26.998Z,15.54
2022-10-21T00:43:26.231Z,15.48
2022-10-21T00:44:26.379Z,15.61
2022-10-21T00:45:26.513Z,15.54
2022-10-21T00:46:26.668Z,15.59
2022-10-21T00:47:26.803Z,15.56
2022-10-21T00:48:26.929Z,15.51
2022-10-21T00:49:27.978Z,15.49
2022-10-21T00:50:27.197Z,15.49
2022-10-21T00:51:27.354Z,15.48
2022-10-21T00:52:27.470Z,15.43
2022-10-21T00:53:27.997Z,15.54
2022-10-21T00:54:27.743Z,15.45
2022-10-21T00:55:27.865Z,15.41
2022-10-21T00:56:28.981Z,15.56
2022-10-21T00:57:28.216Z,15.48
2022-10-21T00:58:28.332Z,15.43
2022-10-21T00:59:28.472Z,15.46
2022-10-21T01:00:28.604Z,15.56
2022-10-21T01:01:28.914Z,15.46
2022-10-21T01:02:29.055Z,15.51
2022-10-21T01:03:29.178Z,15.35
2022-10-21T01:04:29.340Z,15.41
2022-10-21T01:05:29.462Z,15.42
2022-10-21T01:06:30.490Z,15.38
2022-10-21T01:07:29.716Z,15.38
2022-10-21T01:08:29.926Z,15.49
2022-10-21T01:09:29.977Z,15.42
2022-10-21T01:10:30.988Z,15.46
2022-10-21T01:11:30.369Z,15.36
2022-10-21T01:12:30.526Z,15.31
2022-10-21T01:13:31.496Z,15.33
2022-10-21T01:14:30.998Z,15.43
2022-10-21T01:15:31.012Z,15.39
2022-10-21T01:16:31.193Z,15.51
2022-10-21T01:17:47.169Z,15.42
2022-10-21T01:18:33.483Z,15.41
2022-10-21T01:19:31.718Z,15.46
2022-10-21T01:20:32.000Z,15.36
2022-10-21T01:21:32.033Z,15.41
2022-10-21T01:22:32.987Z,15.51
2022-10-21T01:23:32.334Z,15.43
2022-10-21T01:24:32.470Z,15.46
2022-10-21T01:25:32.634Z,15.49
2022-10-21T01:26:32.773Z,15.57
2022-10-21T01:27:32.906Z,15.52
2022-10-21T01:28:33.048Z,15.51
2022-10-21T01:29:33.992Z,15.54
2022-10-21T01:30:33.353Z,15.51
2022-10-21T01:31:33.990Z,15.59
2022-10-21T01:32:33.731Z,15.52
2022-10-21T01:33:33.873Z,15.60
2022-10-21T01:34:34.043Z,15.54
2022-10-21T01:35:34.172Z,15.57
2022-10-21T01:36:34.997Z,15.51
2022-10-21T01:37:35.755Z,15.49
2022-10-21T01:39:08.926Z,15.59
2022-10-21T01:39:35.047Z,15.51
2022-10-21T01:40:35.068Z,15.54
2022-10-21T01:41:35.198Z,15.43
2022-10-21T01:42:35.595Z,15.56
2022-10-21T01:43:36.035Z,15.57
2022-10-21T01:44:36.043Z,15.60
2022-10-21T01:45:35.911Z,15.60
2022-10-21T01:46:36.084Z,15.60
2022-10-21T01:47:36.233Z,15.56
2022-10-21T01:48:36.382Z,15.66
2022-10-21T01:49:37.035Z,15.64
2022-10-21T01:50:36.679Z,15.70
2022-10-21T01:51:36.828Z,15.70
2022-10-21T01:52:37.300Z,15.68
2022-10-21T01:53:37.180Z,15.67
2022-10-21T01:54:37.325Z,15.70
2022-10-21T01:55:37.507Z,15.76
2022-10-21T01:56:37.666Z,15.76
2022-10-21T01:57:37.828Z,15.76
2022-10-21T01:58:37.979Z,15.81
2022-10-21T01:59:38.131Z,15.74
2022-10-21T02:00:38.331Z,15.70
2022-10-21T02:01:38.463Z,15.79
2022-10-21T02:02:38.991Z,15.75
2022-10-21T02:03:38.914Z,15.81
2022-10-21T02:04:39.030Z,15.75
2022-10-21T02:05:40.038Z,15.85
2022-10-21T02:06:40.062Z,15.79
2022-10-21T02:07:39.585Z,15.85
2022-10-21T02:09:13.241Z,15.79
2022-10-21T02:09:40.582Z,15.81
2022-10-21T02:10:40.583Z,15.89
2022-10-21T02:11:40.208Z,15.89
2022-10-21T02:12:40.649Z,15.96
2022-10-21T02:13:40.518Z,15.86
2022-10-21T02:14:40.654Z,15.93
2022-10-21T02:15:40.822Z,15.96
2022-10-21T02:16:41.578Z,15.96
2022-10-21T02:17:41.083Z,15.94
2022-10-21T02:18:41.307Z,15.94
2022-10-21T02:19:41.590Z,15.97
2022-10-21T02:20:41.589Z,15.99
2022-10-21T02:21:42.596Z,15.96
2022-10-21T02:22:42.575Z,15.96
2022-10-21T02:23:42.184Z,16.06
2022-10-21T02:24:42.355Z,16.06
2022-10-21T02:25:43.076Z,16.15
2022-10-21T02:26:43.595Z,16.14
2022-10-21T02:27:43.590Z,16.15
2022-10-21T02:28:43.195Z,16.20
2022-10-21T02:29:43.232Z,16.16
2022-10-21T02:30:43.391Z,16.25
2022-10-21T02:31:43.563Z,16.23
2022-10-21T02:32:43.741Z,16.14
2022-10-21T02:33:44.579Z,16.25
2022-10-21T02:34:44.060Z,16.16
2022-10-21T02:35:45.090Z,16.16
2022-10-21T02:36:44.467Z,16.16
2022-10-21T02:37:45.588Z,16.25
2022-10-21T02:38:44.814Z,16.26
2022-10-21T02:39:45.578Z,16.23
2022-10-21T02:40:45.097Z,16.25
2022-10-21T02:41:45.285Z,16.33
2022-10-21T02:42:45.427Z,16.38
2022-10-21T02:43:45.561Z,16.35
2022-10-21T02:44:45.721Z,16.23
2022-10-21T02:45:46.586Z,16.27
2022-10-21T02:46:46.598Z,16.37
2022-10-21T02:47:46.257Z,16.31
2022-10-21T02:48:46.600Z,16.27
2022-10-21T02:49:47.585Z,16.20
2022-10-21T02:50:46.816Z,16.25
2022-10-21T02:51:46.963Z,16.18
2022-10-21T02:52:47.117Z,16.22
2022-10-21T02:53:48.284Z,16.23
2022-10-21T02:54:47.445Z,16.12
2022-10-21T02:55:47.587Z,16.16
2022-10-21T02:56:47.720Z,16.18
2022-10-21T02:57:47.862Z,16.16
2022-10-21T02:58:47.989Z,16.09
2022-10-21T02:59:48.166Z,16.11
2022-10-21T03:00:49.114Z,16.11
2022-10-21T03:01:48.511Z,16.14
2022-10-21T03:02:48.635Z,16.07
2022-10-21T03:03:48.787Z,16.06
2022-10-21T03:04:48.940Z,16.00
2022-10-21T03:05:49.077Z,16.03
2022-10-21T03:06:49.215Z,16.00
2022-10-21T03:07:51.088Z,15.99
2022-10-21T03:08:49.717Z,15.93
2022-10-21T03:09:49.891Z,15.94
2022-10-21T03:10:53.012Z,15.85
2022-10-21T03:11:50.223Z,15.97
2022-10-21T03:12:50.368Z,15.93
2022-10-21T03:13:50.555Z,15.89
2022-10-21T03:14:51.617Z,15.92
2022-10-21T03:15:51.107Z,15.94
2022-10-21T03:16:51.593Z,15.92
2022-10-21T03:17:51.279Z,15.85
2022-10-21T03:18:51.470Z,15.89
2022-10-21T03:19:51.646Z,15.99
2022-10-21T03:20:52.113Z,15.99
2022-10-21T03:21:52.018Z,15.99
2022-10-21T03:22:52.191Z,15.94
2022-10-21T03:23:52.369Z,15.94
2022-10-21T03:24:53.122Z,15.93
2022-10-21T03:25:52.783Z,15.85
2022-10-21T03:26:52.978Z,15.92
2022-10-21T03:27:53.170Z,15.89
2022-10-21T03:28:53.340Z,15.82
2022-10-21T03:29:53.577Z,15.86
2022-10-21T03:30:54.111Z,15.96
2022-10-21T03:31:53.895Z,15.86
2022-10-21T03:32:54.059Z,15.78
2022-10-21T03:33:54.238Z,15.79
2022-10-21T03:34:54.431Z,15.84
2022-10-21T03:35:54.639Z,15.81
2022-10-21T03:36:54.834Z,15.76
2022-10-21T03:37:55.013Z,15.81
2022-10-21T03:38:55.165Z,15.75
2022-10-21T03:39:56.097Z,15.79
2022-10-21T03:40:55.497Z,15.75
2022-10-21T03:41:56.603Z,15.74
2022-10-21T03:42:55.857Z,15.74
2022-10-21T03:43:56.113Z,15.68
2022-10-21T03:44:57.098Z,15.68
2022-10-21T03:45:56.330Z,15.76
2022-10-21T03:46:56.460Z,15.67
2022-10-21T03:47:56.627Z,15.68
2022-10-21T03:49:02.740Z,15.75
2022-10-21T03:49:58.992Z,15.64
2022-10-21T03:50:58.103Z,15.70
2022-10-21T03:51:57.225Z,15.74
2022-10-21T03:52:57.375Z,15.70
2022-10-21T03:53:57.571Z,15.64
2022-10-21T03:54:57.712Z,15.54
2022-10-21T03:55:57.866Z,15.60
2022-10-21T03:56:57.996Z,15.64
2022-10-21T03:57:58.146Z,15.60
2022-10-21T03:58:58.905Z,15.61
2022-10-21T03:59:59.529Z,15.66
2022-10-21T04:00:58.664Z,15.61
2022-10-21T04:01:58.882Z,15.68
2022-10-21T04:02:58.963Z,15.63
2022-10-21T04:03:59.128Z,15.66
2022-10-21T04:05:00.109Z,15.70
2022-10-21T04:05:59.469Z,15.64
2022-10-21T04:06:59.620Z,15.68
2022-10-21T04:07:59.746Z,15.66
2022-10-21T04:08:59.953Z,15.63
2022-10-21T04:10:00.606Z,15.63
2022-10-21T04:11:00.247Z,15.66
2022-10-21T04:12:00.390Z,15.61
2022-10-21T04:13:01.107Z,15.56
2022-10-21T04:14:01.614Z,15.56
2022-10-21T04:15:00.961Z,15.51
2022-10-21T04:16:01.135Z,15.57
2022-10-21T04:17:07.106Z,15.49
2022-10-21T04:18:03.362Z,15.49
2022-10-21T04:19:01.542Z,15.56
2022-10-21T04:20:01.788Z,15.51
2022-10-21T04:21:01.899Z,15.51
2022-10-21T04:22:02.153Z,15.49
2022-10-21T04:23:02.299Z,15.48
2022-10-21T04:24:02.447Z,15.48
2022-10-21T04:25:04.825Z,15.43
2022-10-21T04:26:02.770Z,15.41
2022-10-21T04:27:03.611Z,15.52
2022-10-21T04:28:03.130Z,15.57
2022-10-21T04:29:03.250Z,15.52
2022-10-21T04:30:03.415Z,15.43
2022-10-21T04:31:03.534Z,15.48
2022-10-21T04:32:03.669Z,15.46
2022-10-21T04:33:03.844Z,15.42
2022-10-21T04:34:04.126Z,15.45
2022-10-21T04:35:05.121Z,15.49
2022-10-21T04:36:04.417Z,15.51
2022-10-21T04:37:05.346Z,15.46
2022-10-21T04:38:04.737Z,15.46
2022-10-21T04:39:04.893Z,15.45
2022-10-21T04:40:06.082Z,15.43
2022-10-21T04:41:06.115Z,15.41
2022-10-21T04:42:05.373Z,15.49
2022-10-21T04:43:05.555Z,15.43
2022-10-21T04:44:05.737Z,15.48
2022-10-21T04:45:05.917Z,15.45
2022-10-21T04:46:07.629Z,15.38
2022-10-21T04:47:06.285Z,15.39
2022-10-21T04:48:07.124Z,15.46
2022-10-21T04:49:06.628Z,15.41
2022-10-21T04:50:07.129Z,15.48
2022-10-21T04:51:06.895Z,15.36
2022-10-21T04:52:07.034Z,15.33
2022-10-21T04:53:07.193Z,15.35
2022-10-21T04:54:07.344Z,15.41
2022-10-21T04:55:07.473Z,15.36
2022-10-21T04:56:07.612Z,15.42
2022-10-21T04:57:07.756Z,15.43
2022-10-21T04:58:07.908Z,15.41
2022-10-21T04:59:08.053Z,15.35
2022-10-21T05:00:08.198Z,15.43
2022-10-21T05:01:08.368Z,15.48
2022-10-21T05:02:08.556Z,15.38
2022-10-21T05:03:10.089Z,15.33
2022-10-21T05:04:08.846Z,15.33
2022-10-21T05:05:08.994Z,15.41
2022-10-21T05:06:10.132Z,15.24
2022-10-21T05:07:09.254Z,15.38
2022-10-21T05:08:11.600Z,15.36
2022-10-21T05:09:10.616Z,15.38
2022-10-21T05:10:09.765Z,15.31
2022-10-21T05:11:09.927Z,15.36
2022-10-21T05:12:10.065Z,15.27
2022-10-21T05:13:10.642Z,15.42
2022-10-21T05:14:10.429Z,15.35
2022-10-21T05:15:10.597Z,15.28
2022-10-21T05:16:10.758Z,15.36
2022-10-21T05:17:10.895Z,15.38
2022-10-21T05:18:11.668Z,15.30
2022-10-21T05:19:12.153Z,15.27
2022-10-21T05:20:12.134Z,15.26
2022-10-21T05:21:12.175Z,15.23
2022-10-21T05:22:11.805Z,15.28
2022-10-21T05:23:11.995Z,15.30
2022-10-21T05:24:12.147Z,15.28
2022-10-21T05:25:13.133Z,15.28
2022-10-21T05:26:12.505Z,15.30
2022-10-21T05:27:13.156Z,15.33
2022-10-21T05:28:13.631Z,15.28
2022-10-21T05:29:13.143Z,15.33
2022-10-21T05:30:13.133Z,15.26
2022-10-21T05:31:13.644Z,15.24
2022-10-21T05:32:13.418Z,15.27
2022-10-21T05:33:14.152Z,15.27
2022-10-21T05:34:14.701Z,15.24
2022-10-21T05:35:13.965Z,15.28
2022-10-21T05:36:14.635Z,15.27
2022-10-21T05:37:14.274Z,15.26
2022-10-21T05:38:14.454Z,15.19
2022-10-21T05:39:14.648Z,15.19
2022-10-21T05:40:14.796Z,15.30
2022-10-21T05:41:15.634Z,15.13
2022-10-21T05:42:15.177Z,15.21
2022-10-21T05:43:15.346Z,15.19
2022-10-21T05:44:15.520Z,15.19
2022-10-21T05:45:15.658Z,15.19
2022-10-21T05:46:15.794Z,15.24
2022-10-21T05:47:15.936Z,15.19
2022-10-21T05:48:17.985Z,15.13
2022-10-21T05:49:17.203Z,15.15
2022-10-21T05:50:16.304Z,15.17
2022-10-21T05:51:16.554Z,15.20
2022-10-21T05:52:16.699Z,15.19
2022-10-21T05:53:17.636Z,15.20
2022-10-21T05:54:17.015Z,15.11
2022-10-21T05:55:17.187Z,15.09
2022-10-21T05:56:17.326Z,15.13
2022-10-21T05:57:17.470Z,15.11
2022-10-21T05:58:17.606Z,15.08
2022-10-21T05:59:17.742Z,15.09
2022-10-21T06:00:18.638Z,15.11
2022-10-21T06:01:18.226Z,15.09
2022-10-21T06:02:18.292Z,15.12
2022-10-21T06:03:18.654Z,15.17
2022-10-21T06:04:18.657Z,15.05
2022-10-21T06:05:18.783Z,15.13
2022-10-21T06:06:19.158Z,15.11
2022-10-21T06:07:19.067Z,15.15
2022-10-21T06:08:20.151Z,15.13
2022-10-21T06:09:19.376Z,15.12
2022-10-21T06:10:19.569Z,15.11
2022-10-21T06:11:19.725Z,15.17
2022-10-21T06:12:20.672Z,15.13
2022-10-21T06:13:20.049Z,15.13
2022-10-21T06:14:21.143Z,15.20
2022-10-21T06:15:21.152Z,15.24
2022-10-21T06:16:20.654Z,15.19
2022-10-21T06:17:20.649Z,15.27
2022-10-21T06:18:20.914Z,15.23
2022-10-21T06:19:21.654Z,15.24
2022-10-21T06:20:21.256Z,15.33
2022-10-21T06:21:21.410Z,15.24
2022-10-21T06:22:22.164Z,15.35
2022-10-21T06:23:22.163Z,15.26
2022-10-21T06:24:22.658Z,15.41
2022-10-21T06:25:22.155Z,15.39
2022-10-21T06:26:22.300Z,15.30
2022-10-21T06:27:22.505Z,15.41
2022-10-21T06:28:22.673Z,15.36
2022-10-21T06:29:22.831Z,15.38
2022-10-21T06:30:23.653Z,15.38
2022-10-21T06:31:23.171Z,15.33
2022-10-21T06:32:23.327Z,15.38
2022-10-21T06:33:26.824Z,15.42
2022-10-21T06:34:23.653Z,15.45
2022-10-21T06:35:24.651Z,15.42
2022-10-21T06:36:24.657Z,15.46
2022-10-21T06:37:24.159Z,15.46
2022-10-21T06:38:24.326Z,15.49
2022-10-21T06:39:24.456Z,15.41
2022-10-21T06:40:24.616Z,15.43
2022-10-21T06:41:24.773Z,15.43
2022-10-21T06:42:24.961Z,15.45
2022-10-21T06:43:25.167Z,15.38
2022-10-21T06:44:25.329Z,15.43
2022-10-21T06:45:25.454Z,15.46
2022-10-21T06:46:25.598Z,15.42
2022-10-21T06:47:25.706Z,15.42
2022-10-21T06:48:25.967Z,15.46
2022-10-21T06:49:26.100Z,15.43
2022-10-21T06:50:26.733Z,15.52
2022-10-21T06:51:26.362Z,15.49
2022-10-21T06:52:27.169Z,15.57
2022-10-21T06:53:26.644Z,15.57
2022-10-21T06:54:26.761Z,15.63
2022-10-21T06:55:26.999Z,15.70
2022-10-21T06:56:27.257Z,15.67
2022-10-21T06:57:27.410Z,15.60
2022-10-21T06:58:27.538Z,15.67
2022-10-21T06:59:27.663Z,15.64
2022-10-21T07:00:28.176Z,15.67
2022-10-21T07:01:34.846Z,15.61
2022-10-21T07:02:30.035Z,15.67
2022-10-21T07:03:29.156Z,15.74
2022-10-21T07:04:28.482Z,15.72
2022-10-21T07:05:29.178Z,15.66
2022-10-21T07:06:28.842Z,15.79
2022-10-21T07:07:28.984Z,15.81
2022-10-21T07:08:40.264Z,15.82
2022-10-21T07:09:31.378Z,15.81
2022-10-21T07:10:30.192Z,15.79
2022-10-21T07:11:29.688Z,15.82
2022-10-21T07:12:30.803Z,15.86
2022-10-21T07:13:30.031Z,15.82
2022-10-21T07:14:31.162Z,15.88
2022-10-21T07:15:30.399Z,15.86
2022-10-21T07:16:30.575Z,15.88
2022-10-21T07:17:30.731Z,15.92
2022-10-21T07:18:30.898Z,15.92
2022-10-21T07:19:31.050Z,15.94
2022-10-21T07:20:31.228Z,15.93
2022-10-21T07:21:31.376Z,15.99
2022-10-21T07:22:31.531Z,15.89
2022-10-21T07:23:32.180Z,15.93
2022-10-21T07:24:31.862Z,15.88
2022-10-21T07:25:32.027Z,15.96
2022-10-21T07:26:32.206Z,16.04
2022-10-21T07:27:32.384Z,16.01
2022-10-21T07:28:32.682Z,16.03
2022-10-21T07:29:33.192Z,15.99
2022-10-21T07:30:32.878Z,16.00
2022-10-21T07:31:33.009Z,15.96
2022-10-21T07:32:33.679Z,16.03
2022-10-21T07:33:33.313Z,16.03
2022-10-21T07:34:33.487Z,16.06
2022-10-21T07:36:08.620Z,16.06
2022-10-21T07:36:33.801Z,16.04
2022-10-21T07:37:34.224Z,16.12
2022-10-21T07:38:34.116Z,16.04
2022-10-21T07:39:34.711Z,16.06
2022-10-21T07:40:34.500Z,16.14
2022-10-21T07:41:34.633Z,16.03
2022-10-21T07:42:34.776Z,16.11
2022-10-21T07:43:35.696Z,16.04
2022-10-21T07:44:35.077Z,16.16
2022-10-21T07:45:35.710Z,16.15
2022-10-21T07:46:35.351Z,16.06
2022-10-21T07:47:35.740Z,16.07
2022-10-21T07:48:36.199Z,16.09
2022-10-21T07:49:35.839Z,16.06
2022-10-21T07:50:36.029Z,16.15
2022-10-21T07:51:36.235Z,16.06
2022-10-21T07:52:39.553Z,16.15
2022-10-21T07:53:38.651Z,16.15
2022-10-21T07:54:37.708Z,16.18
2022-10-21T07:55:37.065Z,16.16
2022-10-21T07:56:37.210Z,16.11
2022-10-21T07:57:37.343Z,16.14
2022-10-21T07:58:37.501Z,16.16
2022-10-21T07:59:37.641Z,16.22
2022-10-21T08:00:37.785Z,16.22
2022-10-21T08:01:37.981Z,16.26
2022-10-21T08:02:38.380Z,16.26
2022-10-21T08:03:38.203Z,16.16
2022-10-21T08:04:38.331Z,16.22
2022-10-21T08:05:38.468Z,16.25
2022-10-21T08:06:38.604Z,16.31
2022-10-21T08:07:39.216Z,16.26
2022-10-21T08:08:39.012Z,16.20
2022-10-21T08:09:39.182Z,16.18
2022-10-21T08:10:39.417Z,16.22
2022-10-21T08:11:40.208Z,16.22
2022-10-21T08:12:40.042Z,16.23
2022-10-21T08:13:39.877Z,16.23
2022-10-21T08:14:40.052Z,16.22
2022-10-21T08:15:40.712Z,16.11
2022-10-21T08:16:40.335Z,16.23
2022-10-21T08:17:40.513Z,16.22
2022-10-21T08:18:41.226Z,16.20
2022-10-21T08:19:41.714Z,16.20
2022-10-21T08:20:41.044Z,16.20
2022-10-21T08:21:41.173Z,16.18
2022-10-21T08:22:41.382Z,16.25
2022-10-21T08:23:41.469Z,16.23
2022-10-21T08:24:42.461Z,16.18
2022-10-21T08:25:42.709Z,16.20
2022-10-21T08:26:42.079Z,16.20
2022-10-21T08:27:42.191Z,16.20
2022-10-21T08:28:42.428Z,16.20
2022-10-21T08:29:42.727Z,16.16
2022-10-21T08:30:42.845Z,16.18
2022-10-21T08:31:42.960Z,16.26
2022-10-21T08:32:43.232Z,16.30
2022-10-21T08:33:43.215Z,16.31
2022-10-21T08:34:43.386Z,16.27
2022-10-21T08:35:44.224Z,16.34
2022-10-21T08:36:44.231Z,16.40
2022-10-21T08:37:44.720Z,16.41
2022-10-21T08:38:43.945Z,16.41
2022-10-21T08:39:44.131Z,16.40
2022-10-21T08:40:45.220Z,16.49
2022-10-21T08:41:44.497Z,16.45
2022-10-21T08:42:44.748Z,16.42
2022-10-21T08:43:44.799Z,16.56
2022-10-21T08:44:44.967Z,16.49
2022-10-21T08:45:45.186Z,16.55
2022-10-21T08:46:46.225Z,16.55
2022-10-21T08:47:45.621Z,16.63
2022-10-21T08:48:45.784Z,16.67
2022-10-21T08:49:46.715Z,16.65
2022-10-21T08:50:46.722Z,16.63
2022-10-21T08:51:46.736Z,16.73
2022-10-21T08:52:46.386Z,16.73
2022-10-21T08:53:47.219Z,16.65
2022-10-21T08:54:46.759Z,16.71
2022-10-21T08:55:46.919Z,16.70
2022-10-21T08:56:47.722Z,16.71
2022-10-21T08:57:47.233Z,16.75
2022-10-21T08:58:47.400Z,16.77
2022-10-21T08:59:47.732Z,16.75
2022-10-21T09:00:47.778Z,16.68
2022-10-21T09:01:47.945Z,16.80
2022-10-21T09:02:48.134Z,16.63
2022-10-21T09:03:49.228Z,16.78
2022-10-21T09:04:48.507Z,16.74
2022-10-21T09:05:48.748Z,16.83
2022-10-21T09:06:49.725Z,16.77
2022-10-21T09:07:49.124Z,16.83
2022-10-21T09:08:52.568Z,16.78
2022-10-21T09:09:49.526Z,16.80
2022-10-21T09:10:49.747Z,16.75
2022-10-21T09:11:49.785Z,16.75
2022-10-21T09:12:49.981Z,16.85
2022-10-21T09:13:50.139Z,16.78
2022-10-21T09:14:50.360Z,16.89
2022-10-21T09:15:50.764Z,16.77
2022-10-21T09:16:50.705Z,16.78
2022-10-21T09:17:50.881Z,16.81
2022-10-21T09:18:52.055Z,16.80
2022-10-21T09:19:51.288Z,16.88
2022-10-21T09:20:55.980Z,16.83
2022-10-21T09:22:01.520Z,16.78
2022-10-21T09:22:53.726Z,16.85
2022-10-21T09:23:51.973Z,16.78
2022-10-21T09:24:52.130Z,16.85
2022-10-21T09:25:52.292Z,16.85
2022-10-21T09:26:52.436Z,16.90
2022-10-21T09:27:57.027Z,16.83
2022-10-21T09:28:54.732Z,16.86
2022-10-21T09:29:52.948Z,16.81
2022-10-21T09:30:53.140Z,16.85
2022-10-21T09:31:58.515Z,16.83
2022-10-21T09:32:55.444Z,16.92
2022-10-21T09:33:53.698Z,16.83
2022-10-21T09:34:53.881Z,16.80
2022-10-21T09:35:54.054Z,16.80
2022-10-21T09:36:54.191Z,16.83
2022-10-21T09:37:54.360Z,16.90
2022-10-21T09:38:54.750Z,16.89
2022-10-21T09:39:55.252Z,16.89
2022-10-21T09:40:54.802Z,16.83
2022-10-21T09:41:58.289Z,16.86
2022-10-21T09:42:56.228Z,16.86
2022-10-21T09:43:55.388Z,16.90
2022-10-21T09:44:55.582Z,16.80
2022-10-21T09:45:55.709Z,16.75
2022-10-21T09:46:56.878Z,16.70
2022-10-21T09:47:56.750Z,16.78
2022-10-21T09:50:07.600Z,16.74
2022-10-21T09:50:58.707Z,16.68
2022-10-21T09:51:56.804Z,16.68
2022-10-21T09:52:56.941Z,16.65
2022-10-21T09:53:57.077Z,16.68
2022-10-21T09:54:57.273Z,16.67
2022-10-21T09:55:57.421Z,16.55
2022-10-21T09:56:57.554Z,16.62
2022-10-21T09:57:57.686Z,16.55
2022-10-21T09:59:01.260Z,16.50
2022-10-21T09:59:58.983Z,16.55
2022-10-21T10:00:58.109Z,16.42
2022-10-21T10:01:59.313Z,16.37
2022-10-21T10:02:58.412Z,16.40
2022-10-21T10:03:58.552Z,16.37
2022-10-21T10:04:59.267Z,16.41
2022-10-21T10:05:58.863Z,16.34
2022-10-21T10:06:59.744Z,16.30
2022-10-21T10:07:59.207Z,16.41
2022-10-21T10:10:00.310Z,16.30
2022-10-21T10:10:59.677Z,16.34
2022-10-21T10:11:59.806Z,16.26
2022-10-21T10:13:00.075Z,16.30
2022-10-21T10:14:01.245Z,16.26
2022-10-21T10:15:00.486Z,16.30
2022-10-21T10:16:01.248Z,16.30
2022-10-21T10:17:01.244Z,16.37
2022-10-21T10:18:01.747Z,16.25
2022-10-21T10:19:01.769Z,16.27
2022-10-21T10:20:01.278Z,16.27
2022-10-21T10:21:02.249Z,16.18
2022-10-21T10:22:01.643Z,16.15
2022-10-21T10:23:01.801Z,16.07
2022-10-21T10:24:01.949Z,16.11
2022-10-21T10:25:02.091Z,16.03
2022-10-21T10:26:02.232Z,16.01
2022-10-21T10:27:02.759Z,15.93
2022-10-21T10:28:02.646Z,15.99
2022-10-21T10:29:02.794Z,16.00
2022-10-21T10:30:02.964Z,15.99
2022-10-21T10:31:03.756Z,16.00
2022-10-21T10:32:03.251Z,15.96
2022-10-21T10:33:03.399Z,15.94
2022-10-21T10:34:04.340Z,15.89
2022-10-21T10:35:03.721Z,15.94
2022-10-21T10:36:05.329Z,15.97
2022-10-21T10:37:05.083Z,15.82
2022-10-21T10:38:05.258Z,15.86
2022-10-21T10:39:04.483Z,16.00
2022-10-21T10:40:04.632Z,15.89
2022-10-21T10:41:04.758Z,15.82
2022-10-21T10:42:04.881Z,15.92
2022-10-21T10:43:05.022Z,15.94
2022-10-21T10:44:05.182Z,15.92
2022-10-21T10:45:05.303Z,15.78
2022-10-21T10:46:05.426Z,15.85
2022-10-21T10:47:05.548Z,15.85
2022-10-21T10:48:05.689Z,15.88
2022-10-21T10:49:06.355Z,15.86
2022-10-21T10:50:06.284Z,15.86
2022-10-21T10:51:06.153Z,15.88
2022-10-21T10:52:06.280Z,15.88
2022-10-21T10:53:06.393Z,15.97
2022-10-21T10:54:07.262Z,16.03
2022-10-21T10:55:07.271Z,15.99
2022-10-21T10:56:06.900Z,15.99
2022-10-21T10:57:07.045Z,15.99
2022-10-21T10:58:11.694Z,15.96
2022-10-21T10:59:09.409Z,15.97
2022-10-21T11:00:07.658Z,15.89
2022-10-21T11:01:07.851Z,15.94
2022-10-21T11:02:07.935Z,16.00
2022-10-21T11:03:08.088Z,15.99
2022-10-21T11:04:08.314Z,15.94
2022-10-21T11:05:09.262Z,15.97
2022-10-21T11:06:08.773Z,16.07
2022-10-21T11:07:08.781Z,16.01
2022-10-21T11:08:08.936Z,16.06
2022-10-21T11:09:09.169Z,16.12
2022-10-21T11:10:09.776Z,16.14
2022-10-21T11:11:09.520Z,16.22
2022-10-21T11:12:09.685Z,16.16
2022-10-21T11:13:09.815Z,16.22
2022-10-21T11:14:09.976Z,16.26
2022-10-21T11:15:10.119Z,16.18
2022-10-21T11:16:10.278Z,16.27
2022-10-21T11:17:10.414Z,16.22
2022-10-21T11:18:24.069Z,16.25
2022-10-21T11:19:12.861Z,16.34
2022-10-21T11:20:11.765Z,16.31
2022-10-21T11:21:11.274Z,16.18
2022-10-21T11:22:11.296Z,16.22
2022-10-21T11:23:11.442Z,16.30
2022-10-21T11:24:11.567Z,16.26
2022-10-21T11:25:11.704Z,16.22
2022-10-21T11:26:12.282Z,16.20
2022-10-21T11:27:13.521Z,16.25
2022-10-21T11:28:12.229Z,16.16
2022-10-21T11:29:12.377Z,16.18
2022-10-21T11:30:12.568Z,16.06
2022-10-21T11:31:12.692Z,16.18
2022-10-21T11:32:12.924Z,16.15
2022-10-21T11:33:13.292Z,16.07
2022-10-21T11:34:14.268Z,16.14
2022-10-21T11:35:13.562Z,16.12
2022-10-21T11:36:13.710Z,16.23
2022-10-21T11:37:13.895Z,16.04
2022-10-21T11:38:14.031Z,16.18
2022-10-21T11:39:16.364Z,16.22
2022-10-21T11:40:15.403Z,16.11
2022-10-21T11:42:15.284Z,16.15
2022-10-21T11:43:15.770Z,16.18
2022-10-21T11:44:15.260Z,16.25
2022-10-21T11:45:15.416Z,16.23
2022-10-21T11:46:15.569Z,16.14
2022-10-21T11:47:15.767Z,16.14
2022-10-21T11:48:15.902Z,16.23
2022-10-21T11:49:16.096Z,16.23
2022-10-21T11:50:16.313Z,16.33
2022-10-21T11:51:17.378Z,16.22
2022-10-21T11:52:16.616Z,16.22
2022-10-21T11:53:17.284Z,16.16
2022-10-21T11:54:16.971Z,16.12
2022-10-21T11:55:17.106Z,16.11
2022-10-21T11:56:17.282Z,16.15
2022-10-21T11:57:17.438Z,16.22
2022-10-21T11:58:17.593Z,16.20
2022-10-21T11:59:17.790Z,16.22
2022-10-21T12:00:17.948Z,16.22
2022-10-21T12:01:18.104Z,16.11
2022-10-21T12:02:18.814Z,16.07
2022-10-21T12:03:18.445Z,16.09
2022-10-21T12:04:18.615Z,16.11
2022-10-21T12:05:18.765Z,16.11
2022-10-21T12:06:18.994Z,16.09
2022-10-21T12:07:19.301Z,16.14
2022-10-21T12:08:19.377Z,16.06
2022-10-21T12:09:19.582Z,16.20
2022-10-21T12:10:20.318Z,16.14
2022-10-21T12:11:20.779Z,16.12
2022-10-21T12:12:20.071Z,16.18
2022-10-21T12:13:20.292Z,16.23
2022-10-21T12:14:20.443Z,16.31
2022-10-21T12:15:20.617Z,16.31
2022-10-21T12:16:21.778Z,16.35
2022-10-21T12:17:21.036Z,16.44
2022-10-21T12:18:21.319Z,16.42
2022-10-21T12:19:21.326Z,16.45
2022-10-21T12:20:23.888Z,16.45
2022-10-21T12:21:22.374Z,16.49
2022-10-21T12:22:21.754Z,16.56
2022-10-21T12:23:21.899Z,16.58
2022-10-21T12:24:22.073Z,16.60
2022-10-21T12:25:22.248Z,16.65
2022-10-21T12:26:22.421Z,16.58
2022-10-21T12:27:22.614Z,16.67
2022-10-21T12:28:22.790Z,16.67
2022-10-21T12:29:22.970Z,16.74
2022-10-21T12:30:25.094Z,16.81
2022-10-21T12:31:23.788Z,16.85
2022-10-21T12:32:23.469Z,16.86
2022-10-21T12:33:23.629Z,16.90
2022-10-21T12:34:23.786Z,16.96
2022-10-21T12:35:24.787Z,16.98
2022-10-21T12:36:24.016Z,17.00
2022-10-21T12:37:24.895Z,16.93
2022-10-21T12:38:24.424Z,16.99
2022-10-21T12:39:24.553Z,17.06
2022-10-21T12:40:24.688Z,17.07
2022-10-21T12:41:24.852Z,17.14
2022-10-21T12:42:25.017Z,17.17
2022-10-21T12:43:25.308Z,17.11
2022-10-21T12:44:25.327Z,17.10
2022-10-21T12:45:25.478Z,17.30
2022-10-21T12:46:26.324Z,17.29
2022-10-21T12:47:25.804Z,17.55
2022-10-21T12:48:25.929Z,17.70
2022-10-21T12:49:26.798Z,17.85
2022-10-21T12:50:26.814Z,18.03
2022-10-21T12:51:26.547Z,17.87
2022-10-21T12:52:27.294Z,17.84
2022-10-21T12:53:27.035Z,17.87
2022-10-21T12:54:30.384Z,17.84
2022-10-21T12:55:27.416Z,17.81
2022-10-21T12:56:27.514Z,17.81
2022-10-21T12:57:28.295Z,17.70
2022-10-21T12:58:28.301Z,17.74